sensor_id;sensor_type;location;lat;lon;timestamp;temperature;humidity
48768;DHT22;34933;40.968;14.538;2023-10-13T00:02:43;19.20;99.90
48768;DHT22;34933;40.968;14.538;2023-10-13T00:05:29;19.10;99.90
48768;DHT22;34933;40.968;14.538;2023-10-13T00:08:15;19.20;99.90
48768;DHT22;34933;40.968;14.538;2023-10-13T00:11:00;19.20;99.90
48768;DHT22;34933;40.968;14.538;2023-10-13T00:13:44;19.10;99.90
48768;DHT22;34933;40.968;14.538;2023-10-13T00:16:34;19.10;99.90
48768;DHT22;34933;40.968;14.538;2023-10-13T00:19:22;19.00;99.90
48768;DHT22;34933;40.968;14.538;2023-10-13T00:22:08;19.00;99.90
48768;DHT22;34933;40.968;14.538;2023-10-13T00:24:53;18.90;99.90
48768;DHT22;34933;40.968;14.538;2023-10-13T00:27:42;18.80;99.90
48768;DHT22;34933;40.968;14.538;2023-10-13T00:30:28;18.80;99.90
48768;DHT22;34933;40.968;14.538;2023-10-13T00:33:19;18.80;99.90
48768;DHT22;34933;40.968;14.538;2023-10-13T00:36:07;18.70;99.90
48768;DHT22;34933;40.968;14.538;2023-10-13T00:38:53;18.70;99.90
48768;DHT22;34933;40.968;14.538;2023-10-13T00:41:40;18.60;99.90
48768;DHT22;34933;40.968;14.538;2023-10-13T00:44:41;18.60;99.90
48768;DHT22;34933;40.968;14.538;2023-10-13T00:47:28;18.50;99.90
48768;DHT22;34933;40.968;14.538;2023-10-13T00:50:33;18.70;99.90
48768;DHT22;34933;40.968;14.538;2023-10-13T00:53:21;18.70;99.90
48768;DHT22;34933;40.968;14.538;2023-10-13T00:56:07;18.70;99.90
48768;DHT22;34933;40.968;14.538;2023-10-13T00:58:53;18.60;99.90
48768;DHT22;34933;40.968;14.538;2023-10-13T01:01:38;18.60;99.90
48768;DHT22;34933;40.968;14.538;2023-10-13T01:04:26;18.50;99.90
48768;DHT22;34933;40.968;14.538;2023-10-13T01:07:16;18.50;99.90
48768;DHT22;34933;40.968;14.538;2023-10-13T01:10:01;18.50;99.90
48768;DHT22;34933;40.968;14.538;2023-10-13T01:12:48;18.60;99.90
48768;DHT22;34933;40.968;14.538;2023-10-13T01:15:36;18.60;99.90
48768;DHT22;34933;40.968;14.538;2023-10-13T01:18:21;18.70;99.90
48768;DHT22;34933;40.968;14.538;2023-10-13T01:21:06;18.80;99.90
48768;DHT22;34933;40.968;14.538;2023-10-13T01:23:51;18.90;99.90
48768;DHT22;34933;40.968;14.538;2023-10-13T01:26:36;19.00;99.90
48768;DHT22;34933;40.968;14.538;2023-10-13T01:29:23;19.00;99.90
48768;DHT22;34933;40.968;14.538;2023-10-13T01:32:15;19.00;99.90
48768;DHT22;34933;40.968;14.538;2023-10-13T01:34:59;19.10;99.90
48768;DHT22;34933;40.968;14.538;2023-10-13T01:37:50;19.10;99.90
48768;DHT22;34933;40.968;14.538;2023-10-13T01:40:35;19.10;99.90
48768;DHT22;34933;40.968;14.538;2023-10-13T01:43:20;19.20;99.90
48768;DHT22;34933;40.968;14.538;2023-10-13T01:46:04;19.20;99.90
48768;DHT22;34933;40.968;14.538;2023-10-13T01:48:49;19.20;99.90
48768;DHT22;34933;40.968;14.538;2023-10-13T01:51:34;19.20;99.90
48768;DHT22;34933;40.968;14.538;2023-10-13T01:54:19;19.30;99.90
48768;DHT22;34933;40.968;14.538;2023-10-13T01:57:05;19.30;99.90
48768;DHT22;34933;40.968;14.538;2023-10-13T01:59:50;19.30;99.90
48768;DHT22;34933;40.968;14.538;2023-10-13T02:02:34;19.30;99.90
48768;DHT22;34933;40.968;14.538;2023-10-13T02:05:19;19.30;99.90
48768;DHT22;34933;40.968;14.538;2023-10-13T02:08:04;19.40;99.90
48768;DHT22;34933;40.968;14.538;2023-10-13T02:10:55;19.50;99.90
48768;DHT22;34933;40.968;14.538;2023-10-13T02:13:40;19.50;99.90
48768;DHT22;34933;40.968;14.538;2023-10-13T02:16:33;19.50;99.90
48768;DHT22;34933;40.968;14.538;2023-10-13T02:19:17;19.50;99.90
48768;DHT22;34933;40.968;14.538;2023-10-13T02:22:03;19.60;99.90
48768;DHT22;34933;40.968;14.538;2023-10-13T02:24:48;19.70;99.90
48768;DHT22;34933;40.968;14.538;2023-10-13T02:27:36;19.70;99.90
48768;DHT22;34933;40.968;14.538;2023-10-13T02:30:44;19.80;99.90
48768;DHT22;34933;40.968;14.538;2023-10-13T02:33:29;19.80;99.90
48768;DHT22;34933;40.968;14.538;2023-10-13T02:36:14;19.80;99.90
48768;DHT22;34933;40.968;14.538;2023-10-13T02:39:06;19.80;99.90
48768;DHT22;34933;40.968;14.538;2023-10-13T02:41:54;19.80;99.90
48768;DHT22;34933;40.968;14.538;2023-10-13T02:44:39;19.90;99.90
48768;DHT22;34933;40.968;14.538;2023-10-13T02:47:28;19.90;99.90
48768;DHT22;34933;40.968;14.538;2023-10-13T02:50:16;19.90;99.90
48768;DHT22;34933;40.968;14.538;2023-10-13T02:53:02;20.00;99.90
48768;DHT22;34933;40.968;14.538;2023-10-13T02:55:53;20.00;99.90
48768;DHT22;34933;40.968;14.538;2023-10-13T02:58:38;20.10;99.90
48768;DHT22;34933;40.968;14.538;2023-10-13T03:01:22;20.00;99.90
48768;DHT22;34933;40.968;14.538;2023-10-13T03:04:12;20.10;99.90
48768;DHT22;34933;40.968;14.538;2023-10-13T03:06:57;20.10;99.90
48768;DHT22;34933;40.968;14.538;2023-10-13T03:09:43;20.10;99.90
48768;DHT22;34933;40.968;14.538;2023-10-13T03:12:38;20.10;99.90
48768;DHT22;34933;40.968;14.538;2023-10-13T03:15:23;20.10;99.90
48768;DHT22;34933;40.968;14.538;2023-10-13T03:18:14;20.10;99.90
48768;DHT22;34933;40.968;14.538;2023-10-13T03:21:02;20.10;99.90
48768;DHT22;34933;40.968;14.538;2023-10-13T03:23:47;20.10;99.90
48768;DHT22;34933;40.968;14.538;2023-10-13T03:26:32;20.10;99.90
48768;DHT22;34933;40.968;14.538;2023-10-13T03:29:21;20.00;99.90
48768;DHT22;34933;40.968;14.538;2023-10-13T03:32:14;20.10;99.90
48768;DHT22;34933;40.968;14.538;2023-10-13T03:34:59;20.10;99.90
48768;DHT22;34933;40.968;14.538;2023-10-13T03:37:43;20.00;99.90
48768;DHT22;34933;40.968;14.538;2023-10-13T03:40:28;20.10;99.90
48768;DHT22;34933;40.968;14.538;2023-10-13T03:43:13;20.10;99.90
48768;DHT22;34933;40.968;14.538;2023-10-13T03:45:58;20.10;99.90
48768;DHT22;34933;40.968;14.538;2023-10-13T03:48:52;20.10;99.90
48768;DHT22;34933;40.968;14.538;2023-10-13T03:51:41;20.10;99.90
48768;DHT22;34933;40.968;14.538;2023-10-13T03:54:27;20.10;99.90
48768;DHT22;34933;40.968;14.538;2023-10-13T03:57:15;20.10;99.90
48768;DHT22;34933;40.968;14.538;2023-10-13T04:00:00;20.10;99.90
48768;DHT22;34933;40.968;14.538;2023-10-13T04:02:57;20.10;99.90
48768;DHT22;34933;40.968;14.538;2023-10-13T04:05:48;20.10;99.90
48768;DHT22;34933;40.968;14.538;2023-10-13T04:08:55;20.00;99.90
48768;DHT22;34933;40.968;14.538;2023-10-13T04:12:06;19.90;99.90
48768;DHT22;34933;40.968;14.538;2023-10-13T04:14:56;19.90;99.90
48768;DHT22;34933;40.968;14.538;2023-10-13T04:17:50;19.80;99.90
48768;DHT22;34933;40.968;14.538;2023-10-13T04:20:35;19.80;99.90
48768;DHT22;34933;40.968;14.538;2023-10-13T04:23:22;19.90;99.90
48768;DHT22;34933;40.968;14.538;2023-10-13T04:26:11;19.90;99.90
48768;DHT22;34933;40.968;14.538;2023-10-13T04:29:05;19.80;99.90
48768;DHT22;34933;40.968;14.538;2023-10-13T04:31:57;19.80;99.90
48768;DHT22;34933;40.968;14.538;2023-10-13T04:34:45;19.70;99.90
48768;DHT22;34933;40.968;14.538;2023-10-13T04:37:39;19.70;99.90
48768;DHT22;34933;40.968;14.538;2023-10-13T04:40:33;19.60;99.90
48768;DHT22;34933;40.968;14.538;2023-10-13T04:43:20;19.60;99.90
48768;DHT22;34933;40.968;14.538;2023-10-13T04:46:31;19.40;99.90
48768;DHT22;34933;40.968;14.538;2023-10-13T04:49:33;19.40;99.90
48768;DHT22;34933;40.968;14.538;2023-10-13T04:52:34;19.30;99.90
48768;DHT22;34933;40.968;14.538;2023-10-13T04:55:49;19.30;99.90
48768;DHT22;34933;40.968;14.538;2023-10-13T04:58:46;19.20;99.90
48768;DHT22;34933;40.968;14.538;2023-10-13T05:01:50;19.00;99.90
48768;DHT22;34933;40.968;14.538;2023-10-13T05:04:53;18.90;99.90
48768;DHT22;34933;40.968;14.538;2023-10-13T05:07:50;18.90;99.90
48768;DHT22;34933;40.968;14.538;2023-10-13T05:10:53;18.80;99.90
48768;DHT22;34933;40.968;14.538;2023-10-13T05:13:56;18.80;99.90
48768;DHT22;34933;40.968;14.538;2023-10-13T05:16:59;18.90;99.90
48768;DHT22;34933;40.968;14.538;2023-10-13T05:20:02;18.80;99.90
48768;DHT22;34933;40.968;14.538;2023-10-13T05:23:05;18.80;99.90
48768;DHT22;34933;40.968;14.538;2023-10-13T05:26:10;18.80;99.90
48768;DHT22;34933;40.968;14.538;2023-10-13T05:29:13;18.90;99.90
48768;DHT22;34933;40.968;14.538;2023-10-13T05:32:17;18.90;99.90
48768;DHT22;34933;40.968;14.538;2023-10-13T05:35:20;18.90;99.90
48768;DHT22;34933;40.968;14.538;2023-10-13T05:38:24;19.00;99.90
48768;DHT22;34933;40.968;14.538;2023-10-13T05:41:27;19.00;99.90
48768;DHT22;34933;40.968;14.538;2023-10-13T05:44:30;19.10;99.90
48768;DHT22;34933;40.968;14.538;2023-10-13T05:47:22;19.20;99.90
48768;DHT22;34933;40.968;14.538;2023-10-13T05:50:27;19.20;99.90
48768;DHT22;34933;40.968;14.538;2023-10-13T05:53:11;19.30;99.90
48768;DHT22;34933;40.968;14.538;2023-10-13T05:56:00;19.40;99.90
48768;DHT22;34933;40.968;14.538;2023-10-13T05:59:03;19.50;99.90
48768;DHT22;34933;40.968;14.538;2023-10-13T06:02:06;19.60;99.90
48768;DHT22;34933;40.968;14.538;2023-10-13T06:05:10;19.80;99.90
48768;DHT22;34933;40.968;14.538;2023-10-13T06:08:13;19.90;99.90
48768;DHT22;34933;40.968;14.538;2023-10-13T06:11:17;20.10;99.90
48768;DHT22;34933;40.968;14.538;2023-10-13T06:14:20;20.30;99.90
48768;DHT22;34933;40.968;14.538;2023-10-13T06:17:23;20.40;99.90
48768;DHT22;34933;40.968;14.538;2023-10-13T06:20:26;20.50;99.90
48768;DHT22;34933;40.968;14.538;2023-10-13T06:23:29;20.60;99.90
48768;DHT22;34933;40.968;14.538;2023-10-13T06:26:32;20.70;99.90
48768;DHT22;34933;40.968;14.538;2023-10-13T06:29:35;20.90;99.90
48768;DHT22;34933;40.968;14.538;2023-10-13T06:32:20;20.90;99.90
48768;DHT22;34933;40.968;14.538;2023-10-13T06:35:09;21.00;99.90
48768;DHT22;34933;40.968;14.538;2023-10-13T06:38:03;21.10;99.90
48768;DHT22;34933;40.968;14.538;2023-10-13T06:40:48;21.20;99.90
48768;DHT22;34933;40.968;14.538;2023-10-13T06:43:35;21.30;99.90
48768;DHT22;34933;40.968;14.538;2023-10-13T06:46:28;21.40;99.90
48768;DHT22;34933;40.968;14.538;2023-10-13T06:49:12;21.50;99.90
48768;DHT22;34933;40.968;14.538;2023-10-13T06:51:58;21.50;99.90
48768;DHT22;34933;40.968;14.538;2023-10-13T06:54:45;21.50;99.90
48768;DHT22;34933;40.968;14.538;2023-10-13T06:57:30;21.50;99.90
48768;DHT22;34933;40.968;14.538;2023-10-13T07:00:18;21.70;99.90
48768;DHT22;34933;40.968;14.538;2023-10-13T07:03:27;21.80;99.90
48768;DHT22;34933;40.968;14.538;2023-10-13T07:06:12;21.80;99.90
48768;DHT22;34933;40.968;14.538;2023-10-13T07:09:02;21.90;99.90
48768;DHT22;34933;40.968;14.538;2023-10-13T07:11:48;22.00;99.90
48768;DHT22;34933;40.968;14.538;2023-10-13T07:14:37;22.10;99.90
48768;DHT22;34933;40.968;14.538;2023-10-13T07:17:22;22.30;99.90
48768;DHT22;34933;40.968;14.538;2023-10-13T07:20:10;22.50;99.90
48768;DHT22;34933;40.968;14.538;2023-10-13T07:23:09;22.60;99.90
48768;DHT22;34933;40.968;14.538;2023-10-13T07:25:56;22.60;99.90
48768;DHT22;34933;40.968;14.538;2023-10-13T07:28:47;22.70;99.90
48768;DHT22;34933;40.968;14.538;2023-10-13T07:31:31;22.80;99.90
48768;DHT22;34933;40.968;14.538;2023-10-13T07:34:16;22.90;99.90
48768;DHT22;34933;40.968;14.538;2023-10-13T07:37:10;22.80;99.90
48768;DHT22;34933;40.968;14.538;2023-10-13T07:39:58;22.90;99.90
48768;DHT22;34933;40.968;14.538;2023-10-13T07:42:43;23.10;99.90
48768;DHT22;34933;40.968;14.538;2023-10-13T07:45:27;23.10;99.90
48768;DHT22;34933;40.968;14.538;2023-10-13T07:48:20;23.10;99.90
48768;DHT22;34933;40.968;14.538;2023-10-13T07:51:09;23.10;99.90
48768;DHT22;34933;40.968;14.538;2023-10-13T07:54:00;23.30;99.90
48768;DHT22;34933;40.968;14.538;2023-10-13T07:56:51;23.50;99.90
48768;DHT22;34933;40.968;14.538;2023-10-13T07:59:35;23.70;99.90
48768;DHT22;34933;40.968;14.538;2023-10-13T08:02:32;23.90;99.90
48768;DHT22;34933;40.968;14.538;2023-10-13T08:05:32;24.10;99.90
48768;DHT22;34933;40.968;14.538;2023-10-13T08:08:35;24.40;99.90
48768;DHT22;34933;40.968;14.538;2023-10-13T08:11:23;24.60;99.90
48768;DHT22;34933;40.968;14.538;2023-10-13T08:14:08;24.80;99.90
48768;DHT22;34933;40.968;14.538;2023-10-13T08:16:55;24.80;99.90
48768;DHT22;34933;40.968;14.538;2023-10-13T08:19:48;25.00;99.90
48768;DHT22;34933;40.968;14.538;2023-10-13T08:22:34;25.10;99.90
48768;DHT22;34933;40.968;14.538;2023-10-13T08:25:22;25.10;99.90
48768;DHT22;34933;40.968;14.538;2023-10-13T08:28:30;25.10;99.90
48768;DHT22;34933;40.968;14.538;2023-10-13T08:31:23;25.10;99.90
48768;DHT22;34933;40.968;14.538;2023-10-13T08:34:10;25.30;99.90
48768;DHT22;34933;40.968;14.538;2023-10-13T08:37:00;25.30;99.90
48768;DHT22;34933;40.968;14.538;2023-10-13T08:39:56;25.20;99.90
48768;DHT22;34933;40.968;14.538;2023-10-13T08:42:47;25.20;99.90
48768;DHT22;34933;40.968;14.538;2023-10-13T08:45:36;25.10;99.90
48768;DHT22;34933;40.968;14.538;2023-10-13T08:48:22;25.10;99.90
48768;DHT22;34933;40.968;14.538;2023-10-13T08:51:16;25.00;99.90
48768;DHT22;34933;40.968;14.538;2023-10-13T08:54:16;24.90;99.90
48768;DHT22;34933;40.968;14.538;2023-10-13T08:57:03;24.80;99.90
48768;DHT22;34933;40.968;14.538;2023-10-13T09:00:09;24.90;99.90
48768;DHT22;34933;40.968;14.538;2023-10-13T09:03:14;24.90;99.90
48768;DHT22;34933;40.968;14.538;2023-10-13T09:06:13;25.00;99.90
48768;DHT22;34933;40.968;14.538;2023-10-13T09:09:06;25.00;99.90
48768;DHT22;34933;40.968;14.538;2023-10-13T09:11:56;25.00;99.90
48768;DHT22;34933;40.968;14.538;2023-10-13T09:14:55;25.20;99.90
48768;DHT22;34933;40.968;14.538;2023-10-13T09:17:45;25.30;99.90
48768;DHT22;34933;40.968;14.538;2023-10-13T09:20:35;25.30;99.90
48768;DHT22;34933;40.968;14.538;2023-10-13T09:23:25;25.00;99.90
48768;DHT22;34933;40.968;14.538;2023-10-13T09:26:10;25.00;99.90
48768;DHT22;34933;40.968;14.538;2023-10-13T09:28:56;25.10;99.90
48768;DHT22;34933;40.968;14.538;2023-10-13T09:31:58;25.30;99.90
48768;DHT22;34933;40.968;14.538;2023-10-13T09:34:44;25.30;99.90
48768;DHT22;34933;40.968;14.538;2023-10-13T09:37:29;25.40;99.90
48768;DHT22;34933;40.968;14.538;2023-10-13T09:40:18;25.70;99.90
48768;DHT22;34933;40.968;14.538;2023-10-13T09:43:17;25.80;99.90
48768;DHT22;34933;40.968;14.538;2023-10-13T09:46:04;25.90;99.90
48768;DHT22;34933;40.968;14.538;2023-10-13T09:48:54;26.00;99.90
48768;DHT22;34933;40.968;14.538;2023-10-13T09:51:52;26.10;99.90
48768;DHT22;34933;40.968;14.538;2023-10-13T09:54:43;26.10;99.90
48768;DHT22;34933;40.968;14.538;2023-10-13T09:57:33;26.10;99.90
48768;DHT22;34933;40.968;14.538;2023-10-13T10:00:28;26.00;99.90
48768;DHT22;34933;40.968;14.538;2023-10-13T10:03:30;26.10;99.90
48768;DHT22;34933;40.968;14.538;2023-10-13T10:06:22;26.10;99.90
48768;DHT22;34933;40.968;14.538;2023-10-13T10:09:12;26.40;99.90
48768;DHT22;34933;40.968;14.538;2023-10-13T10:17:55;26.50;99.90
48768;DHT22;34933;40.968;14.538;2023-10-13T10:20:40;26.40;99.90
48768;DHT22;34933;40.968;14.538;2023-10-13T10:23:28;26.40;99.90
48768;DHT22;34933;40.968;14.538;2023-10-13T10:26:19;26.50;99.90
48768;DHT22;34933;40.968;14.538;2023-10-13T10:29:12;26.50;99.90
48768;DHT22;34933;40.968;14.538;2023-10-13T10:31:59;26.50;99.90
48768;DHT22;34933;40.968;14.538;2023-10-13T10:34:43;26.70;99.90
48768;DHT22;34933;40.968;14.538;2023-10-13T10:37:32;26.90;99.90
48768;DHT22;34933;40.968;14.538;2023-10-13T10:40:19;26.60;99.90
48768;DHT22;34933;40.968;14.538;2023-10-13T10:46:29;26.60;99.90
48768;DHT22;34933;40.968;14.538;2023-10-13T10:49:22;26.60;99.90
48768;DHT22;34933;40.968;14.538;2023-10-13T10:52:12;26.80;99.90
48768;DHT22;34933;40.968;14.538;2023-10-13T10:55:03;27.00;99.90
48768;DHT22;34933;40.968;14.538;2023-10-13T10:58:01;27.10;99.90
48768;DHT22;34933;40.968;14.538;2023-10-13T11:00:45;27.00;99.90
48768;DHT22;34933;40.968;14.538;2023-10-13T11:03:30;27.10;99.90
48768;DHT22;34933;40.968;14.538;2023-10-13T11:06:14;27.30;99.90
48768;DHT22;34933;40.968;14.538;2023-10-13T11:09:08;27.20;99.90
48768;DHT22;34933;40.968;14.538;2023-10-13T11:12:14;27.30;99.90
48768;DHT22;34933;40.968;14.538;2023-10-13T11:18:06;27.50;99.90
48768;DHT22;34933;40.968;14.538;2023-10-13T11:20:57;27.40;99.90
48768;DHT22;34933;40.968;14.538;2023-10-13T11:23:42;27.50;99.90
48768;DHT22;34933;40.968;14.538;2023-10-13T11:26:36;27.60;99.90
48768;DHT22;34933;40.968;14.538;2023-10-13T11:29:32;27.70;99.90
48768;DHT22;34933;40.968;14.538;2023-10-13T11:32:18;27.90;99.90
48768;DHT22;34933;40.968;14.538;2023-10-13T11:35:04;28.20;99.90
48768;DHT22;34933;40.968;14.538;2023-10-13T11:37:54;28.20;99.90
48768;DHT22;34933;40.968;14.538;2023-10-13T11:40:47;28.40;99.90
48768;DHT22;34933;40.968;14.538;2023-10-13T11:44:03;28.70;99.90
48768;DHT22;34933;40.968;14.538;2023-10-13T11:46:58;28.60;99.90
48768;DHT22;34933;40.968;14.538;2023-10-13T11:50:03;28.50;99.90
48768;DHT22;34933;40.968;14.538;2023-10-13T11:52:49;28.70;99.90
48768;DHT22;34933;40.968;14.538;2023-10-13T11:55:34;28.90;99.90
48768;DHT22;34933;40.968;14.538;2023-10-13T11:58:19;29.00;99.90
48768;DHT22;34933;40.968;14.538;2023-10-13T12:01:03;28.90;99.90
48768;DHT22;34933;40.968;14.538;2023-10-13T12:03:57;28.80;99.90
48768;DHT22;34933;40.968;14.538;2023-10-13T12:07:00;28.90;99.90
48768;DHT22;34933;40.968;14.538;2023-10-13T12:10:08;28.90;99.90
48768;DHT22;34933;40.968;14.538;2023-10-13T12:13:00;29.10;99.90
48768;DHT22;34933;40.968;14.538;2023-10-13T12:15:49;29.20;99.90
48768;DHT22;34933;40.968;14.538;2023-10-13T12:18:36;29.50;99.90
48768;DHT22;34933;40.968;14.538;2023-10-13T12:21:22;30.20;99.90
48768;DHT22;34933;40.968;14.538;2023-10-13T12:24:06;31.00;99.90
48768;DHT22;34933;40.968;14.538;2023-10-13T12:26:56;31.50;99.90
48768;DHT22;34933;40.968;14.538;2023-10-13T12:29:41;32.60;99.50
48768;DHT22;34933;40.968;14.538;2023-10-13T12:32:30;32.90;99.00
48768;DHT22;34933;40.968;14.538;2023-10-13T12:35:14;33.10;98.20
48768;DHT22;34933;40.968;14.538;2023-10-13T12:37:59;32.90;98.00
48768;DHT22;34933;40.968;14.538;2023-10-13T12:40:49;33.20;97.80
48768;DHT22;34933;40.968;14.538;2023-10-13T12:43:53;33.70;97.70
48768;DHT22;34933;40.968;14.538;2023-10-13T12:46:56;34.10;96.90
48768;DHT22;34933;40.968;14.538;2023-10-13T12:49:59;34.30;96.70
48768;DHT22;34933;40.968;14.538;2023-10-13T12:52:51;33.80;97.00
48768;DHT22;34933;40.968;14.538;2023-10-13T12:55:40;34.20;96.70
48768;DHT22;34933;40.968;14.538;2023-10-13T12:58:24;34.30;96.40
48768;DHT22;34933;40.968;14.538;2023-10-13T13:01:11;34.50;96.50
48768;DHT22;34933;40.968;14.538;2023-10-13T13:03:58;34.40;96.40
48768;DHT22;34933;40.968;14.538;2023-10-13T13:06:43;34.40;96.10
48768;DHT22;34933;40.968;14.538;2023-10-13T13:09:27;34.50;95.90
48768;DHT22;34933;40.968;14.538;2023-10-13T13:12:12;34.60;95.80
48768;DHT22;34933;40.968;14.538;2023-10-13T13:14:57;34.30;95.70
48768;DHT22;34933;40.968;14.538;2023-10-13T13:17:41;33.60;95.90
48768;DHT22;34933;40.968;14.538;2023-10-13T13:20:26;32.90;96.60
48768;DHT22;34933;40.968;14.538;2023-10-13T13:23:12;32.40;97.00
48768;DHT22;34933;40.968;14.538;2023-10-13T13:25:57;32.30;97.10
48768;DHT22;34933;40.968;14.538;2023-10-13T13:28:42;32.50;97.40
48768;DHT22;34933;40.968;14.538;2023-10-13T13:31:26;32.60;98.20
48768;DHT22;34933;40.968;14.538;2023-10-13T13:34:13;32.80;98.00
48768;DHT22;34933;40.968;14.538;2023-10-13T13:36:58;32.80;97.80
48768;DHT22;34933;40.968;14.538;2023-10-13T13:39:45;32.90;97.80
48768;DHT22;34933;40.968;14.538;2023-10-13T13:42:30;32.70;98.20
48768;DHT22;34933;40.968;14.538;2023-10-13T13:45:20;33.60;98.00
48768;DHT22;34933;40.968;14.538;2023-10-13T13:48:11;32.80;97.90
48768;DHT22;34933;40.968;14.538;2023-10-13T13:51:03;32.40;98.30
48768;DHT22;34933;40.968;14.538;2023-10-13T13:53:49;32.40;98.60
48768;DHT22;34933;40.968;14.538;2023-10-13T13:56:34;32.30;98.40
48768;DHT22;34933;40.968;14.538;2023-10-13T13:59:22;32.60;98.30
48768;DHT22;34933;40.968;14.538;2023-10-13T14:02:07;32.00;98.80
48768;DHT22;34933;40.968;14.538;2023-10-13T14:05:03;31.90;98.70
48768;DHT22;34933;40.968;14.538;2023-10-13T14:07:48;32.10;98.90
48768;DHT22;34933;40.968;14.538;2023-10-13T14:10:33;32.50;98.60
48768;DHT22;34933;40.968;14.538;2023-10-13T14:13:38;32.90;98.30
48768;DHT22;34933;40.968;14.538;2023-10-13T14:16:43;32.60;98.90
48768;DHT22;34933;40.968;14.538;2023-10-13T14:19:35;32.60;99.40
48768;DHT22;34933;40.968;14.538;2023-10-13T14:22:24;32.80;98.80
48768;DHT22;34933;40.968;14.538;2023-10-13T14:25:11;32.40;99.10
48768;DHT22;34933;40.968;14.538;2023-10-13T14:27:58;32.10;99.70
48768;DHT22;34933;40.968;14.538;2023-10-13T14:30:43;31.70;99.90
48768;DHT22;34933;40.968;14.538;2023-10-13T14:33:28;31.50;99.90
48768;DHT22;34933;40.968;14.538;2023-10-13T14:36:15;31.40;99.90
48768;DHT22;34933;40.968;14.538;2023-10-13T14:39:07;31.40;99.90
48768;DHT22;34933;40.968;14.538;2023-10-13T14:41:54;31.40;99.90
48768;DHT22;34933;40.968;14.538;2023-10-13T14:44:39;31.50;99.90
48768;DHT22;34933;40.968;14.538;2023-10-13T14:47:24;31.30;99.90
48768;DHT22;34933;40.968;14.538;2023-10-13T14:50:10;31.40;99.90
48768;DHT22;34933;40.968;14.538;2023-10-13T14:53:04;30.80;99.90
48768;DHT22;34933;40.968;14.538;2023-10-13T14:55:48;30.60;99.90
48768;DHT22;34933;40.968;14.538;2023-10-13T14:58:35;30.30;99.90
48768;DHT22;34933;40.968;14.538;2023-10-13T15:01:21;30.40;99.90
48768;DHT22;34933;40.968;14.538;2023-10-13T15:04:06;30.20;99.90
48768;DHT22;34933;40.968;14.538;2023-10-13T15:06:51;30.50;99.90
48768;DHT22;34933;40.968;14.538;2023-10-13T15:09:36;30.30;99.90
48768;DHT22;34933;40.968;14.538;2023-10-13T15:12:20;29.80;99.90
48768;DHT22;34933;40.968;14.538;2023-10-13T15:15:05;29.40;99.90
48768;DHT22;34933;40.968;14.538;2023-10-13T15:17:58;28.90;99.90
48768;DHT22;34933;40.968;14.538;2023-10-13T15:20:42;28.60;99.90
48768;DHT22;34933;40.968;14.538;2023-10-13T15:23:27;28.20;99.90
48768;DHT22;34933;40.968;14.538;2023-10-13T15:26:15;27.90;99.90
48768;DHT22;34933;40.968;14.538;2023-10-13T15:28:59;27.60;99.90
48768;DHT22;34933;40.968;14.538;2023-10-13T15:31:45;27.50;99.90
48768;DHT22;34933;40.968;14.538;2023-10-13T15:34:45;27.50;99.90
48768;DHT22;34933;40.968;14.538;2023-10-13T15:37:30;27.10;99.90
48768;DHT22;34933;40.968;14.538;2023-10-13T15:40:14;26.70;99.90
48768;DHT22;34933;40.968;14.538;2023-10-13T15:43:01;26.50;99.90
48768;DHT22;34933;40.968;14.538;2023-10-13T15:45:46;26.30;99.90
48768;DHT22;34933;40.968;14.538;2023-10-13T15:48:32;26.10;99.90
48768;DHT22;34933;40.968;14.538;2023-10-13T15:51:19;25.90;99.90
48768;DHT22;34933;40.968;14.538;2023-10-13T15:54:05;25.70;99.90
48768;DHT22;34933;40.968;14.538;2023-10-13T15:56:55;25.60;99.90
48768;DHT22;34933;40.968;14.538;2023-10-13T15:59:39;25.50;99.90
48768;DHT22;34933;40.968;14.538;2023-10-13T16:02:24;25.30;99.90
48768;DHT22;34933;40.968;14.538;2023-10-13T16:05:09;25.20;99.90
48768;DHT22;34933;40.968;14.538;2023-10-13T16:07:54;25.00;99.90
48768;DHT22;34933;40.968;14.538;2023-10-13T16:10:40;24.80;99.90
48768;DHT22;34933;40.968;14.538;2023-10-13T16:13:24;24.70;99.90
48768;DHT22;34933;40.968;14.538;2023-10-13T16:16:17;24.50;99.90
48768;DHT22;34933;40.968;14.538;2023-10-13T16:19:01;24.40;99.90
48768;DHT22;34933;40.968;14.538;2023-10-13T16:21:53;24.30;99.90
48768;DHT22;34933;40.968;14.538;2023-10-13T16:24:37;24.20;99.90
48768;DHT22;34933;40.968;14.538;2023-10-13T16:27:22;24.10;99.90
48768;DHT22;34933;40.968;14.538;2023-10-13T16:30:12;23.90;99.90
48768;DHT22;34933;40.968;14.538;2023-10-13T16:32:59;23.80;99.90
48768;DHT22;34933;40.968;14.538;2023-10-13T16:35:44;23.70;99.90
48768;DHT22;34933;40.968;14.538;2023-10-13T16:38:32;23.60;99.90
48768;DHT22;34933;40.968;14.538;2023-10-13T16:41:16;23.50;99.90
48768;DHT22;34933;40.968;14.538;2023-10-13T16:44:01;23.50;99.90
48768;DHT22;34933;40.968;14.538;2023-10-13T16:46:53;23.40;99.90
48768;DHT22;34933;40.968;14.538;2023-10-13T16:49:44;23.30;99.90
48768;DHT22;34933;40.968;14.538;2023-10-13T16:52:28;23.30;99.90
48768;DHT22;34933;40.968;14.538;2023-10-13T16:55:14;23.20;99.90
48768;DHT22;34933;40.968;14.538;2023-10-13T16:58:02;23.20;99.90
48768;DHT22;34933;40.968;14.538;2023-10-13T17:00:46;23.10;99.90
48768;DHT22;34933;40.968;14.538;2023-10-13T17:03:40;23.10;99.90
48768;DHT22;34933;40.968;14.538;2023-10-13T17:06:24;23.00;99.90
48768;DHT22;34933;40.968;14.538;2023-10-13T17:09:09;22.90;99.90
48768;DHT22;34933;40.968;14.538;2023-10-13T17:11:55;22.90;99.90
48768;DHT22;34933;40.968;14.538;2023-10-13T17:14:40;22.80;99.90
48768;DHT22;34933;40.968;14.538;2023-10-13T17:17:25;22.70;99.90
48768;DHT22;34933;40.968;14.538;2023-10-13T17:20:10;22.70;99.90
48768;DHT22;34933;40.968;14.538;2023-10-13T17:22:55;22.70;99.90
48768;DHT22;34933;40.968;14.538;2023-10-13T17:25:41;22.70;99.90
48768;DHT22;34933;40.968;14.538;2023-10-13T17:28:25;22.70;99.90
48768;DHT22;34933;40.968;14.538;2023-10-13T17:31:10;22.70;99.90
48768;DHT22;34933;40.968;14.538;2023-10-13T17:33:55;22.70;99.90
48768;DHT22;34933;40.968;14.538;2023-10-13T17:36:42;22.70;99.90
48768;DHT22;34933;40.968;14.538;2023-10-13T17:39:27;22.70;99.90
48768;DHT22;34933;40.968;14.538;2023-10-13T17:42:11;22.70;99.90
48768;DHT22;34933;40.968;14.538;2023-10-13T17:44:57;22.70;99.90
48768;DHT22;34933;40.968;14.538;2023-10-13T17:47:43;22.70;99.90
48768;DHT22;34933;40.968;14.538;2023-10-13T17:50:28;22.70;99.90